sensor_id;sensor_type;location;lat;lon;timestamp;pressure;altitude;pressure_sealevel;temperature;humidity
74895;BME280;63447;49.446;8.666;2024-02-21T00:00:53;101347.75;;;7.72;90.39
74895;BME280;63447;49.446;8.666;2024-02-21T00:03:22;101359.72;;;7.81;90.54
74895;BME280;63447;49.446;8.666;2024-02-21T00:05:47;101355.88;;;7.82;89.52
74895;BME280;63447;49.446;8.666;2024-02-21T00:08:13;101336.78;;;7.67;90.38
74895;BME280;63447;49.446;8.666;2024-02-21T00:10:38;101347.78;;;7.67;90.97
74895;BME280;63447;49.446;8.666;2024-02-21T00:13:04;101350.53;;;7.67;91.20
74895;BME280;63447;49.446;8.666;2024-02-21T00:15:32;101347.50;;;7.69;90.17
74895;BME280;63447;49.446;8.666;2024-02-21T00:17:57;101349.63;;;7.77;90.69
74895;BME280;63447;49.446;8.666;2024-02-21T00:20:22;101349.34;;;7.78;90.57
74895;BME280;63447;49.446;8.666;2024-02-21T00:22:50;101323.91;;;7.63;89.89
74895;BME280;63447;49.446;8.666;2024-02-21T00:25:15;101341.44;;;7.72;90.40
74895;BME280;63447;49.446;8.666;2024-02-21T00:27:43;101319.81;;;7.60;90.95
74895;BME280;63447;49.446;8.666;2024-02-21T00:30:11;101317.03;;;7.65;91.02
74895;BME280;63447;49.446;8.666;2024-02-21T00:32:37;101314.81;;;7.67;90.74
74895;BME280;63447;49.446;8.666;2024-02-21T00:35:05;101326.88;;;7.71;90.84
74895;BME280;63447;49.446;8.666;2024-02-21T00:37:31;101327.16;;;7.70;90.91
74895;BME280;63447;49.446;8.666;2024-02-21T00:39:57;101301.69;;;7.59;90.42
74895;BME280;63447;49.446;8.666;2024-02-21T00:42:24;101306.09;;;7.60;90.90
74895;BME280;63447;49.446;8.666;2024-02-21T00:44:52;101315.41;;;7.64;91.74
74895;BME280;63447;49.446;8.666;2024-02-21T00:47:17;101294.03;;;7.56;92.01
74895;BME280;63447;49.446;8.666;2024-02-21T00:49:43;101290.75;;;7.54;91.93
74895;BME280;63447;49.446;8.666;2024-02-21T00:52:08;101304.44;;;7.59;91.98
74895;BME280;63447;49.446;8.666;2024-02-21T00:54:33;101295.22;;;7.50;92.03
74895;BME280;63447;49.446;8.666;2024-02-21T00:56:59;101296.22;;;7.59;91.62
74895;BME280;63447;49.446;8.666;2024-02-21T00:59:24;101286.50;;;7.72;91.08
74895;BME280;63447;49.446;8.666;2024-02-21T01:01:49;101270.44;;;7.55;91.55
74895;BME280;63447;49.446;8.666;2024-02-21T01:04:17;101272.88;;;7.57;92.79
74895;BME280;63447;49.446;8.666;2024-02-21T01:06:42;101271.25;;;7.56;92.28
74895;BME280;63447;49.446;8.666;2024-02-21T01:09:10;101241.44;;;7.44;91.92
74895;BME280;63447;49.446;8.666;2024-02-21T01:11:35;101253.91;;;7.60;92.12
74895;BME280;63447;49.446;8.666;2024-02-21T01:14:01;101211.00;;;7.40;92.53
74895;BME280;63447;49.446;8.666;2024-02-21T01:16:28;101247.88;;;7.58;93.43
74895;BME280;63447;49.446;8.666;2024-02-21T01:18:54;101253.09;;;7.60;92.91
74895;BME280;63447;49.446;8.666;2024-02-21T01:21:19;101241.81;;;7.61;91.35
74895;BME280;63447;49.446;8.666;2024-02-21T01:23:44;101244.72;;;7.46;92.61
74895;BME280;63447;49.446;8.666;2024-02-21T01:26:13;101221.22;;;7.35;93.09
74895;BME280;63447;49.446;8.666;2024-02-21T01:28:41;101269.00;;;7.63;93.35
74895;BME280;63447;49.446;8.666;2024-02-21T01:31:12;101258.69;;;7.49;92.69
74895;BME280;63447;49.446;8.666;2024-02-21T01:33:43;101259.75;;;7.54;94.01
74895;BME280;63447;49.446;8.666;2024-02-21T01:36:08;101260.63;;;7.49;93.97
74895;BME280;63447;49.446;8.666;2024-02-21T01:38:34;101226.19;;;7.33;94.09
74895;BME280;63447;49.446;8.666;2024-02-21T01:40:59;101244.25;;;7.39;94.27
74895;BME280;63447;49.446;8.666;2024-02-21T01:43:25;101237.97;;;7.33;95.89
74895;BME280;63447;49.446;8.666;2024-02-21T01:45:52;101237.16;;;7.33;96.25
74895;BME280;63447;49.446;8.666;2024-02-21T01:48:18;101244.00;;;7.35;95.62
74895;BME280;63447;49.446;8.666;2024-02-21T01:50:47;101239.31;;;7.36;95.83
74895;BME280;63447;49.446;8.666;2024-02-21T01:53:17;101236.63;;;7.31;95.82
74895;BME280;63447;49.446;8.666;2024-02-21T01:55:45;101245.88;;;7.40;96.30
74895;BME280;63447;49.446;8.666;2024-02-21T01:58:12;101244.25;;;7.39;96.80
74895;BME280;63447;49.446;8.666;2024-02-21T02:00:45;101238.75;;;7.39;96.93
74895;BME280;63447;49.446;8.666;2024-02-21T02:03:12;101212.28;;;7.24;96.38
74895;BME280;63447;49.446;8.666;2024-02-21T02:05:47;101204.63;;;7.21;96.96
74895;BME280;63447;49.446;8.666;2024-02-21T02:08:19;101205.44;;;7.22;97.43
74895;BME280;63447;49.446;8.666;2024-02-21T02:10:45;101223.69;;;7.36;97.44
74895;BME280;63447;49.446;8.666;2024-02-21T02:13:18;101217.38;;;7.36;97.27
74895;BME280;63447;49.446;8.666;2024-02-21T02:15:45;101199.38;;;7.25;96.99
74895;BME280;63447;49.446;8.666;2024-02-21T02:18:14;101219.56;;;7.34;97.97
74895;BME280;63447;49.446;8.666;2024-02-21T02:20:40;101214.44;;;7.27;97.70
74895;BME280;63447;49.446;8.666;2024-02-21T02:25:45;101213.56;;;7.32;98.67
74895;BME280;63447;49.446;8.666;2024-02-21T02:28:14;101209.72;;;7.33;99.46
74895;BME280;63447;49.446;8.666;2024-02-21T02:30:40;101175.00;;;7.18;99.02
74895;BME280;63447;49.446;8.666;2024-02-21T02:33:05;101181.84;;;7.21;100.00
74895;BME280;63447;49.446;8.666;2024-02-21T02:35:34;101167.06;;;7.17;98.92
74895;BME280;63447;49.446;8.666;2024-02-21T02:38:02;101185.56;;;7.30;99.18
74895;BME280;63447;49.446;8.666;2024-02-21T02:40:27;101163.44;;;7.21;98.76
74895;BME280;63447;49.446;8.666;2024-02-21T02:42:55;101167.84;;;7.22;99.44
74895;BME280;63447;49.446;8.666;2024-02-21T02:45:22;101139.91;;;7.15;98.95
74895;BME280;63447;49.446;8.666;2024-02-21T02:47:51;101162.91;;;7.19;100.00
74895;BME280;63447;49.446;8.666;2024-02-21T02:50:17;101138.34;;;7.04;100.00
74895;BME280;63447;49.446;8.666;2024-02-21T02:52:42;101168.53;;;7.33;99.43
74895;BME280;63447;49.446;8.666;2024-02-21T02:55:07;101142.97;;;7.08;100.00
74895;BME280;63447;49.446;8.666;2024-02-21T02:57:33;101143.63;;;7.00;100.00
74895;BME280;63447;49.446;8.666;2024-02-21T03:00:00;101162.44;;;7.12;100.00
74895;BME280;63447;49.446;8.666;2024-02-21T03:02:28;101151.53;;;7.02;100.00
74895;BME280;63447;49.446;8.666;2024-02-21T03:04:55;101154.53;;;7.05;100.00
74895;BME280;63447;49.446;8.666;2024-02-21T03:07:20;101155.06;;;7.07;100.00
74895;BME280;63447;49.446;8.666;2024-02-21T03:09:45;101128.56;;;6.98;100.00
74895;BME280;63447;49.446;8.666;2024-02-21T03:12:16;101121.44;;;6.97;100.00
74895;BME280;63447;49.446;8.666;2024-02-21T03:14:50;101135.84;;;7.07;100.00
74895;BME280;63447;49.446;8.666;2024-02-21T03:17:15;101135.09;;;7.02;100.00
74895;BME280;63447;49.446;8.666;2024-02-21T03:19:43;101114.94;;;6.88;100.00
74895;BME280;63447;49.446;8.666;2024-02-21T03:22:10;101129.91;;;7.00;100.00
74895;BME280;63447;49.446;8.666;2024-02-21T03:24:36;101117.63;;;6.93;100.00
74895;BME280;63447;49.446;8.666;2024-02-21T03:27:01;101136.72;;;7.03;100.00
74895;BME280;63447;49.446;8.666;2024-02-21T03:29:27;101126.06;;;7.01;100.00
74895;BME280;63447;49.446;8.666;2024-02-21T03:31:52;101126.09;;;6.96;100.00
74895;BME280;63447;49.446;8.666;2024-02-21T03:34:18;101096.06;;;6.81;100.00
74895;BME280;63447;49.446;8.666;2024-02-21T03:36:43;101117.91;;;6.91;100.00
74895;BME280;63447;49.446;8.666;2024-02-21T03:39:13;101082.19;;;6.72;100.00
74895;BME280;63447;49.446;8.666;2024-02-21T03:41:41;101113.53;;;6.90;100.00
74895;BME280;63447;49.446;8.666;2024-02-21T03:44:06;101091.09;;;6.83;100.00
74895;BME280;63447;49.446;8.666;2024-02-21T03:46:33;101104.50;;;6.90;100.00
74895;BME280;63447;49.446;8.666;2024-02-21T03:49:01;101097.38;;;6.89;100.00
74895;BME280;63447;49.446;8.666;2024-02-21T03:51:29;101086.19;;;6.80;100.00
74895;BME280;63447;49.446;8.666;2024-02-21T03:53:54;101081.91;;;6.74;100.00
74895;BME280;63447;49.446;8.666;2024-02-21T03:56:19;101088.13;;;6.79;100.00
74895;BME280;63447;49.446;8.666;2024-02-21T03:58:47;101098.22;;;6.84;100.00
74895;BME280;63447;49.446;8.666;2024-02-21T04:01:15;101105.94;;;6.82;100.00
74895;BME280;63447;49.446;8.666;2024-02-21T04:03:40;101114.97;;;6.82;100.00
74895;BME280;63447;49.446;8.666;2024-02-21T04:06:05;101119.34;;;6.84;100.00
74895;BME280;63447;49.446;8.666;2024-02-21T04:08:31;101128.13;;;6.86;100.00
74895;BME280;63447;49.446;8.666;2024-02-21T04:10:56;101107.69;;;6.73;100.00
74895;BME280;63447;49.446;8.666;2024-02-21T04:13:22;101134.41;;;6.86;100.00
74895;BME280;63447;49.446;8.666;2024-02-21T04:15:50;101130.00;;;6.90;100.00
74895;BME280;63447;49.446;8.666;2024-02-21T04:18:16;101116.31;;;6.85;100.00
74895;BME280;63447;49.446;8.666;2024-02-21T04:20:41;101138.97;;;7.01;100.00
74895;BME280;63447;49.446;8.666;2024-02-21T04:23:06;101128.28;;;6.99;100.00
74895;BME280;63447;49.446;8.666;2024-02-21T04:25:32;101102.63;;;6.85;100.00
74895;BME280;63447;49.446;8.666;2024-02-21T04:27:57;101115.41;;;6.95;99.82
74895;BME280;63447;49.446;8.666;2024-02-21T04:30:22;101113.44;;;7.00;99.77
74895;BME280;63447;49.446;8.666;2024-02-21T04:32:48;101087.84;;;6.81;100.00
74895;BME280;63447;49.446;8.666;2024-02-21T04:35:13;101104.44;;;6.95;100.00
74895;BME280;63447;49.446;8.666;2024-02-21T04:37:38;101106.91;;;6.96;100.00
74895;BME280;63447;49.446;8.666;2024-02-21T04:40:04;101084.94;;;6.96;100.00
74895;BME280;63447;49.446;8.666;2024-02-21T04:42:30;101065.38;;;6.79;99.78
74895;BME280;63447;49.446;8.666;2024-02-21T04:44:55;101096.22;;;6.95;99.38
74895;BME280;63447;49.446;8.666;2024-02-21T04:47:23;101085.03;;;6.86;100.00
74895;BME280;63447;49.446;8.666;2024-02-21T04:49:51;101060.16;;;6.77;99.99
74895;BME280;63447;49.446;8.666;2024-02-21T04:52:17;101072.97;;;6.87;99.68
74895;BME280;63447;49.446;8.666;2024-02-21T04:54:42;101071.91;;;6.83;100.00
74895;BME280;63447;49.446;8.666;2024-02-21T04:57:07;101067.00;;;6.80;99.85
74895;BME280;63447;49.446;8.666;2024-02-21T04:59:36;101038.34;;;6.67;99.71
74895;BME280;63447;49.446;8.666;2024-02-21T05:02:02;101048.44;;;6.72;100.00
74895;BME280;63447;49.446;8.666;2024-02-21T05:04:27;101041.72;;;6.59;100.00
74895;BME280;63447;49.446;8.666;2024-02-21T05:06:52;101043.09;;;6.57;100.00
74895;BME280;63447;49.446;8.666;2024-02-21T05:09:20;101032.63;;;6.64;100.00
74895;BME280;63447;49.446;8.666;2024-02-21T05:11:47;101038.69;;;6.61;100.00
74895;BME280;63447;49.446;8.666;2024-02-21T05:14:13;101016.66;;;6.42;100.00
74895;BME280;63447;49.446;8.666;2024-02-21T05:16:39;101035.38;;;6.64;100.00
74895;BME280;63447;49.446;8.666;2024-02-21T05:19:05;101037.63;;;6.57;100.00
74895;BME280;63447;49.446;8.666;2024-02-21T05:21:30;101034.09;;;6.51;100.00
74895;BME280;63447;49.446;8.666;2024-02-21T05:23:55;101011.50;;;6.35;100.00
74895;BME280;63447;49.446;8.666;2024-02-21T05:26:22;101030.13;;;6.38;100.00
74895;BME280;63447;49.446;8.666;2024-02-21T05:28:48;101035.88;;;6.37;100.00
74895;BME280;63447;49.446;8.666;2024-02-21T05:31:15;101041.41;;;6.32;100.00
74895;BME280;63447;49.446;8.666;2024-02-21T05:33:48;101030.72;;;6.30;100.00
74895;BME280;63447;49.446;8.666;2024-02-21T05:36:13;101010.88;;;6.15;100.00
74895;BME280;63447;49.446;8.666;2024-02-21T05:38:39;101009.50;;;6.17;100.00
74895;BME280;63447;49.446;8.666;2024-02-21T05:41:05;101013.00;;;6.23;100.00
74895;BME280;63447;49.446;8.666;2024-02-21T05:43:30;101014.00;;;6.32;100.00
74895;BME280;63447;49.446;8.666;2024-02-21T05:45:55;101012.66;;;6.29;100.00
74895;BME280;63447;49.446;8.666;2024-02-21T05:48:24;101020.59;;;6.31;100.00
74895;BME280;63447;49.446;8.666;2024-02-21T05:50:50;101015.44;;;6.24;100.00
74895;BME280;63447;49.446;8.666;2024-02-21T05:53:18;100983.56;;;6.04;100.00
74895;BME280;63447;49.446;8.666;2024-02-21T05:55:43;101018.28;;;6.14;100.00
74895;BME280;63447;49.446;8.666;2024-02-21T05:58:09;101028.69;;;6.12;100.00
74895;BME280;63447;49.446;8.666;2024-02-21T06:00:41;101014.72;;;6.13;100.00
74895;BME280;63447;49.446;8.666;2024-02-21T06:03:06;100998.06;;;6.05;100.00
74895;BME280;63447;49.446;8.666;2024-02-21T06:05:36;101011.19;;;6.08;100.00
74895;BME280;63447;49.446;8.666;2024-02-21T06:08:02;101014.97;;;6.17;100.00
74895;BME280;63447;49.446;8.666;2024-02-21T06:10:28;101006.25;;;6.10;100.00
74895;BME280;63447;49.446;8.666;2024-02-21T06:12:53;100981.38;;;6.01;99.93
74895;BME280;63447;49.446;8.666;2024-02-21T06:15:19;100968.50;;;6.02;99.41
74895;BME280;63447;49.446;8.666;2024-02-21T06:17:46;100990.09;;;6.08;99.90
74895;BME280;63447;49.446;8.666;2024-02-21T06:20:12;100967.13;;;6.04;98.72
74895;BME280;63447;49.446;8.666;2024-02-21T06:22:37;100994.72;;;6.13;98.98
74895;BME280;63447;49.446;8.666;2024-02-21T06:25:03;101004.88;;;6.12;99.01
74895;BME280;63447;49.446;8.666;2024-02-21T06:27:30;100999.94;;;6.09;99.37
74895;BME280;63447;49.446;8.666;2024-02-21T06:29:55;100976.72;;;6.02;99.73
74895;BME280;63447;49.446;8.666;2024-02-21T06:32:23;100994.47;;;6.09;99.48
74895;BME280;63447;49.446;8.666;2024-02-21T06:34:51;100986.00;;;6.06;98.75
74895;BME280;63447;49.446;8.666;2024-02-21T06:37:16;100995.91;;;6.02;98.19
74895;BME280;63447;49.446;8.666;2024-02-21T06:39:42;100992.31;;;6.06;98.13
74895;BME280;63447;49.446;8.666;2024-02-21T06:42:08;101008.41;;;6.13;96.87
74895;BME280;63447;49.446;8.666;2024-02-21T06:44:33;100999.59;;;6.21;97.26
74895;BME280;63447;49.446;8.666;2024-02-21T06:47:05;100974.66;;;6.23;96.30
74895;BME280;63447;49.446;8.666;2024-02-21T06:49:31;100979.97;;;6.38;96.24
74895;BME280;63447;49.446;8.666;2024-02-21T06:51:56;100965.00;;;6.25;96.04
74895;BME280;63447;49.446;8.666;2024-02-21T06:54:23;100990.44;;;6.31;95.44
74895;BME280;63447;49.446;8.666;2024-02-21T06:56:49;100980.88;;;6.28;94.78
74895;BME280;63447;49.446;8.666;2024-02-21T06:59:17;100968.84;;;6.24;94.33
74895;BME280;63447;49.446;8.666;2024-02-21T07:01:53;100980.81;;;6.33;94.30
74895;BME280;63447;49.446;8.666;2024-02-21T07:04:21;100993.06;;;6.46;93.87
74895;BME280;63447;49.446;8.666;2024-02-21T07:06:46;100986.81;;;6.40;94.10
74895;BME280;63447;49.446;8.666;2024-02-21T07:09:12;100994.63;;;6.52;93.20
74895;BME280;63447;49.446;8.666;2024-02-21T07:11:39;100995.16;;;6.54;94.24
74895;BME280;63447;49.446;8.666;2024-02-21T07:14:05;101004.66;;;6.62;93.58
74895;BME280;63447;49.446;8.666;2024-02-21T07:16:30;101001.88;;;6.67;93.51
74895;BME280;63447;49.446;8.666;2024-02-21T07:18:57;100989.28;;;6.66;92.55
74895;BME280;63447;49.446;8.666;2024-02-21T07:21:23;100988.50;;;6.84;92.56
74895;BME280;63447;49.446;8.666;2024-02-21T07:23:48;100993.19;;;6.84;91.85
74895;BME280;63447;49.446;8.666;2024-02-21T07:26:16;100989.69;;;6.78;92.52
74895;BME280;63447;49.446;8.666;2024-02-21T07:28:41;100985.53;;;6.80;92.55
74895;BME280;63447;49.446;8.666;2024-02-21T07:31:06;100978.78;;;6.73;91.70
74895;BME280;63447;49.446;8.666;2024-02-21T07:33:34;100985.13;;;6.92;92.55
74895;BME280;63447;49.446;8.666;2024-02-21T07:36:06;100987.59;;;6.94;93.06
74895;BME280;63447;49.446;8.666;2024-02-21T07:38:31;100970.09;;;7.08;91.46
74895;BME280;63447;49.446;8.666;2024-02-21T07:40:57;100964.09;;;7.06;90.46
74895;BME280;63447;49.446;8.666;2024-02-21T07:43:24;100983.84;;;7.08;91.26
74895;BME280;63447;49.446;8.666;2024-02-21T07:45:52;100982.72;;;7.09;91.69
74895;BME280;63447;49.446;8.666;2024-02-21T07:48:18;100998.31;;;7.14;90.65
74895;BME280;63447;49.446;8.666;2024-02-21T07:50:44;100981.50;;;7.21;90.34
74895;BME280;63447;49.446;8.666;2024-02-21T07:53:09;100981.44;;;7.26;89.48
74895;BME280;63447;49.446;8.666;2024-02-21T07:55:34;100988.31;;;7.23;89.30
74895;BME280;63447;49.446;8.666;2024-02-21T07:58:02;100985.00;;;7.26;89.57
74895;BME280;63447;49.446;8.666;2024-02-21T08:00:28;100974.50;;;7.28;89.42
74895;BME280;63447;49.446;8.666;2024-02-21T08:02:53;100971.97;;;7.13;90.48
74895;BME280;63447;49.446;8.666;2024-02-21T08:05:18;100963.69;;;7.18;90.77
74895;BME280;63447;49.446;8.666;2024-02-21T08:07:43;100949.66;;;7.20;89.25
74895;BME280;63447;49.446;8.666;2024-02-21T08:10:09;100954.69;;;7.12;89.98
74895;BME280;63447;49.446;8.666;2024-02-21T08:12:35;100942.38;;;7.10;90.24
74895;BME280;63447;49.446;8.666;2024-02-21T08:15:01;100956.56;;;7.36;89.70
74895;BME280;63447;49.446;8.666;2024-02-21T08:17:28;100953.69;;;7.46;88.46
74895;BME280;63447;49.446;8.666;2024-02-21T08:19:54;100957.09;;;7.38;88.60
74895;BME280;63447;49.446;8.666;2024-02-21T08:22:19;100937.94;;;7.33;88.48
74895;BME280;63447;49.446;8.666;2024-02-21T08:24:44;100942.19;;;7.25;89.83
74895;BME280;63447;49.446;8.666;2024-02-21T08:27:15;100959.94;;;7.52;88.18
74895;BME280;63447;49.446;8.666;2024-02-21T08:29:40;100928.31;;;7.17;89.50
74895;BME280;63447;49.446;8.666;2024-02-21T08:32:05;100933.69;;;7.59;87.96
74895;BME280;63447;49.446;8.666;2024-02-21T08:34:31;100935.59;;;7.45;88.75
74895;BME280;63447;49.446;8.666;2024-02-21T08:36:59;100941.72;;;7.56;89.15
74895;BME280;63447;49.446;8.666;2024-02-21T08:39:26;100936.22;;;7.56;87.86
74895;BME280;63447;49.446;8.666;2024-02-21T08:41:54;100928.16;;;7.45;89.31
74895;BME280;63447;49.446;8.666;2024-02-21T08:44:19;100924.88;;;7.62;88.99
74895;BME280;63447;49.446;8.666;2024-02-21T08:46:44;100887.94;;;7.36;88.99
74895;BME280;63447;49.446;8.666;2024-02-21T08:49:12;100896.31;;;7.44;88.86
74895;BME280;63447;49.446;8.666;2024-02-21T08:51:41;100891.78;;;7.54;89.17
74895;BME280;63447;49.446;8.666;2024-02-21T08:54:08;100915.28;;;7.78;87.66
74895;BME280;63447;49.446;8.666;2024-02-21T08:56:33;100915.69;;;7.86;87.99
74895;BME280;63447;49.446;8.666;2024-02-21T08:58:59;100918.06;;;7.92;87.62
74895;BME280;63447;49.446;8.666;2024-02-21T09:01:27;100909.53;;;7.94;87.11
74895;BME280;63447;49.446;8.666;2024-02-21T09:03:54;100908.31;;;8.00;86.40
74895;BME280;63447;49.446;8.666;2024-02-21T09:06:23;100912.00;;;8.09;87.65
74895;BME280;63447;49.446;8.666;2024-02-21T09:08:49;100911.59;;;8.15;85.85
74895;BME280;63447;49.446;8.666;2024-02-21T09:11:14;100901.88;;;7.91;86.37
74895;BME280;63447;49.446;8.666;2024-02-21T09:13:40;100907.38;;;7.91;86.57
74895;BME280;63447;49.446;8.666;2024-02-21T09:16:05;100888.78;;;8.01;86.73
74895;BME280;63447;49.446;8.666;2024-02-21T09:18:31;100898.03;;;8.38;86.10
74895;BME280;63447;49.446;8.666;2024-02-21T09:20:57;100874.53;;;8.13;85.36
74895;BME280;63447;49.446;8.666;2024-02-21T09:23:25;100877.03;;;8.42;83.89
74895;BME280;63447;49.446;8.666;2024-02-21T09:25:50;100877.16;;;8.50;83.08
74895;BME280;63447;49.446;8.666;2024-02-21T09:28:16;100890.69;;;8.61;83.06
74895;BME280;63447;49.446;8.666;2024-02-21T09:30:41;100873.38;;;8.74;83.29
74895;BME280;63447;49.446;8.666;2024-02-21T09:33:09;100878.53;;;8.89;80.47
74895;BME280;63447;49.446;8.666;2024-02-21T09:35:34;100881.22;;;8.80;81.59
74895;BME280;63447;49.446;8.666;2024-02-21T09:38:00;100874.66;;;9.04;79.91
74895;BME280;63447;49.446;8.666;2024-02-21T09:40:26;100859.47;;;9.06;82.60
74895;BME280;63447;49.446;8.666;2024-02-21T09:43:03;100864.06;;;9.33;80.03
74895;BME280;63447;49.446;8.666;2024-02-21T09:45:29;100858.88;;;9.32;78.79
74895;BME280;63447;49.446;8.666;2024-02-21T09:50:40;100852.78;;;9.43;78.46
74895;BME280;63447;49.446;8.666;2024-02-21T09:53:09;100838.66;;;9.00;79.03
74895;BME280;63447;49.446;8.666;2024-02-21T09:55:37;100855.59;;;9.30;78.97
74895;BME280;63447;49.446;8.666;2024-02-21T09:58:05;100852.56;;;9.17;79.95
74895;BME280;63447;49.446;8.666;2024-02-21T10:00:30;100845.53;;;9.25;77.80
74895;BME280;63447;49.446;8.666;2024-02-21T10:02:56;100845.84;;;9.46;77.60
74895;BME280;63447;49.446;8.666;2024-02-21T10:05:21;100841.72;;;9.35;78.18
74895;BME280;63447;49.446;8.666;2024-02-21T10:07:48;100844.00;;;9.64;76.25
74895;BME280;63447;49.446;8.666;2024-02-21T10:10:14;100847.34;;;9.30;78.12
74895;BME280;63447;49.446;8.666;2024-02-21T10:12:51;100837.47;;;9.29;78.83
74895;BME280;63447;49.446;8.666;2024-02-21T10:15:23;100831.69;;;9.92;75.03
74895;BME280;63447;49.446;8.666;2024-02-21T10:18:01;100837.28;;;10.01;75.58
74895;BME280;63447;49.446;8.666;2024-02-21T10:20:28;100815.81;;;10.20;74.49
74895;BME280;63447;49.446;8.666;2024-02-21T10:23:04;100822.72;;;10.48;73.55
74895;BME280;63447;49.446;8.666;2024-02-21T10:25:34;100832.44;;;10.37;72.56
74895;BME280;63447;49.446;8.666;2024-02-21T10:27:59;100814.47;;;10.17;74.60
74895;BME280;63447;49.446;8.666;2024-02-21T10:30:27;100820.28;;;10.38;74.07
74895;BME280;63447;49.446;8.666;2024-02-21T10:32:53;100818.28;;;9.46;76.63
74895;BME280;63447;49.446;8.666;2024-02-21T10:35:28;100803.13;;;9.12;78.56
74895;BME280;63447;49.446;8.666;2024-02-21T10:37:58;100773.84;;;9.39;77.53
74895;BME280;63447;49.446;8.666;2024-02-21T10:40:28;100801.56;;;9.96;76.41
74895;BME280;63447;49.446;8.666;2024-02-21T10:43:02;100781.19;;;10.05;75.99
74895;BME280;63447;49.446;8.666;2024-02-21T10:45:32;100790.59;;;10.52;74.75
74895;BME280;63447;49.446;8.666;2024-02-21T10:48:14;100792.13;;;10.19;73.81
74895;BME280;63447;49.446;8.666;2024-02-21T10:56:41;100759.63;;;10.16;74.17
74895;BME280;63447;49.446;8.666;2024-02-21T10:59:12;100766.78;;;10.65;71.98
74895;BME280;63447;49.446;8.666;2024-02-21T11:01:40;100753.31;;;10.15;72.81
74895;BME280;63447;49.446;8.666;2024-02-21T11:04:07;100743.22;;;10.50;72.78
74895;BME280;63447;49.446;8.666;2024-02-21T11:06:34;100762.69;;;10.54;71.09
74895;BME280;63447;49.446;8.666;2024-02-21T11:09:07;100765.75;;;10.35;73.31
74895;BME280;63447;49.446;8.666;2024-02-21T11:11:33;100736.06;;;10.67;71.81
74895;BME280;63447;49.446;8.666;2024-02-21T11:16:36;100738.50;;;10.68;70.53
74895;BME280;63447;49.446;8.666;2024-02-21T11:21:39;100732.69;;;10.87;69.56
74895;BME280;63447;49.446;8.666;2024-02-21T11:24:06;100699.38;;;10.40;70.77
74895;BME280;63447;49.446;8.666;2024-02-21T11:26:32;100738.16;;;10.44;70.07
74895;BME280;63447;49.446;8.666;2024-02-21T11:28:59;100716.44;;;10.51;69.80
74895;BME280;63447;49.446;8.666;2024-02-21T11:31:25;100693.50;;;10.25;69.95
74895;BME280;63447;49.446;8.666;2024-02-21T11:33:54;100710.88;;;10.25;69.92
74895;BME280;63447;49.446;8.666;2024-02-21T11:36:26;100703.28;;;10.57;68.86
74895;BME280;63447;49.446;8.666;2024-02-21T11:38:54;100681.81;;;10.19;67.89
74895;BME280;63447;49.446;8.666;2024-02-21T11:41:29;100693.72;;;10.54;67.98
74895;BME280;63447;49.446;8.666;2024-02-21T11:43:54;100661.41;;;10.37;68.02
74895;BME280;63447;49.446;8.666;2024-02-21T11:46:22;100627.00;;;10.52;67.41
74895;BME280;63447;49.446;8.666;2024-02-21T11:48:48;100672.28;;;10.77;66.97
74895;BME280;63447;49.446;8.666;2024-02-21T11:51:25;100670.34;;;10.60;67.66
74895;BME280;63447;49.446;8.666;2024-02-21T11:53:53;100627.16;;;10.47;66.96
74895;BME280;63447;49.446;8.666;2024-02-21T11:56:19;100638.34;;;10.68;66.76
74895;BME280;63447;49.446;8.666;2024-02-21T11:58:50;100656.69;;;10.46;66.41
74895;BME280;63447;49.446;8.666;2024-02-21T12:01:15;100640.47;;;10.19;67.38
74895;BME280;63447;49.446;8.666;2024-02-21T12:03:42;100638.19;;;10.73;66.88
74895;BME280;63447;49.446;8.666;2024-02-21T12:06:07;100646.78;;;10.88;64.82
74895;BME280;63447;49.446;8.666;2024-02-21T12:08:43;100635.25;;;10.78;65.59
74895;BME280;63447;49.446;8.666;2024-02-21T12:11:22;100632.84;;;11.32;64.43
74895;BME280;63447;49.446;8.666;2024-02-21T12:14:00;100623.97;;;11.55;63.65
74895;BME280;63447;49.446;8.666;2024-02-21T12:16:32;100618.69;;;10.86;64.72
74895;BME280;63447;49.446;8.666;2024-02-21T12:18:59;100621.09;;;11.05;65.63
74895;BME280;63447;49.446;8.666;2024-02-21T12:21:29;100606.88;;;11.24;64.95
74895;BME280;63447;49.446;8.666;2024-02-21T12:24:00;100612.31;;;11.03;65.30
74895;BME280;63447;49.446;8.666;2024-02-21T12:26:36;100600.72;;;11.18;64.92
74895;BME280;63447;49.446;8.666;2024-02-21T12:29:02;100599.00;;;11.05;65.66
74895;BME280;63447;49.446;8.666;2024-02-21T12:31:27;100582.66;;;11.30;64.99
74895;BME280;63447;49.446;8.666;2024-02-21T12:33:55;100579.56;;;11.31;63.91
74895;BME280;63447;49.446;8.666;2024-02-21T12:36:21;100577.00;;;11.17;65.16
74895;BME280;63447;49.446;8.666;2024-02-21T12:38:46;100564.56;;;11.03;65.11
74895;BME280;63447;49.446;8.666;2024-02-21T12:41:14;100565.44;;;10.77;65.57
74895;BME280;63447;49.446;8.666;2024-02-21T12:43:39;100566.59;;;10.68;66.59
74895;BME280;63447;49.446;8.666;2024-02-21T12:46:05;100531.84;;;10.75;65.66
74895;BME280;63447;49.446;8.666;2024-02-21T12:48:32;100559.75;;;10.82;65.41
74895;BME280;63447;49.446;8.666;2024-02-21T12:50:58;100544.13;;;10.95;66.23
74895;BME280;63447;49.446;8.666;2024-02-21T12:53:24;100538.72;;;10.61;66.11
74895;BME280;63447;49.446;8.666;2024-02-21T12:55:50;100534.84;;;10.44;66.14
74895;BME280;63447;49.446;8.666;2024-02-21T12:58:18;100527.34;;;10.62;65.86
74895;BME280;63447;49.446;8.666;2024-02-21T13:00:43;100529.78;;;10.55;66.39
74895;BME280;63447;49.446;8.666;2024-02-21T13:03:11;100502.53;;;10.53;65.26
74895;BME280;63447;49.446;8.666;2024-02-21T13:05:37;100500.41;;;10.59;65.19
74895;BME280;63447;49.446;8.666;2024-02-21T13:08:08;100503.03;;;10.94;64.83
74895;BME280;63447;49.446;8.666;2024-02-21T13:10:34;100504.06;;;10.89;65.43